Aviation Digital Data Service (ADDS)

Output produced by METARs form (0212 UTC 29 November 2014)
found at http://aviationweather.gov/adds/metars/
 
KSSI 282325Z 2900/2924 04003KT P6SM SKC 
     FM291400 06005KT P6SM FEW025 
     FM291700 11006KT P6SM FEW030